Kezdőlap
METAR-TAF:

METAR-TAF

Repülőterek :

Carroll, Iowa, Amerikai Egyesült Államok

földrajzi szélesség: 42-03N, földrajzi hosszúság: 094-47W, magasság: 375 m

Jelenlegi meteorológiai megfigyelések

A jelentés 19 perccel ezelõtt készült, 06:35 UTC
Délkeleti szél 9 kt széllökések: 23 kt
Hőmérséklet 20°C
Páratartalom 83%
Légköri nyomás 1005 hPa
Látótávolság: 14.5 km
Kevés felhő 2800 lábon
Szórványos felhőzet 4600 lábon
Szakadozott felhőzet 7000 lábon

METAR: KCIN 210635Z AUTO 13009G23KT 9SM FEW028 SCT046 BKN070 20/17 A2968 RMK AO2

Idő: 01:54 (06:54 UTC)


TAF: hiányzik

Meteorológiai megfigyelések és előrejelzések több, mint 4000 repülőtéren (METAR és TAF jelentéseket).

A térképen piros és sárga pontok jelzik az elérhető meteorológiai állomásokat.

Mozgassa az egeret a pont fölött, hogy megjelenjen az állomás neve.

Azután kattintson az időjárási megfigyelések és előrejelzések megtekintéséhez.

A térkép megváltoztatása: kattintson a fekete keresztel jelölt zöld gombra ráközelítéshez, a vonallal jelölt zöld gombra távolításhoz, vagy a zöld nyilakra a szomszédos térképek eléréséhez.


METAR-TAF: